sensor_id;sensor_type;location;lat;lon;timestamp;temperature;humidity
23560;DHT22;11958;50.836;4.438;2023-03-14T00:00:48;11.70;74.10
23560;DHT22;11958;50.836;4.438;2023-03-14T00:03:14;11.80;74.60
23560;DHT22;11958;50.836;4.438;2023-03-14T00:05:39;11.50;75.40
23560;DHT22;11958;50.836;4.438;2023-03-14T00:08:05;11.60;75.60
23560;DHT22;11958;50.836;4.438;2023-03-14T00:10:31;11.40;75.80
23560;DHT22;11958;50.836;4.438;2023-03-14T00:12:57;11.40;76.50
23560;DHT22;11958;50.836;4.438;2023-03-14T00:15:22;11.30;76.90
23560;DHT22;11958;50.836;4.438;2023-03-14T00:17:48;11.30;77.10
23560;DHT22;11958;50.836;4.438;2023-03-14T00:20:14;11.10;77.90
23560;DHT22;11958;50.836;4.438;2023-03-14T00:22:40;11.20;78.30
23560;DHT22;11958;50.836;4.438;2023-03-14T00:25:08;11.10;78.20
23560;DHT22;11958;50.836;4.438;2023-03-14T00:27:34;11.10;78.60
23560;DHT22;11958;50.836;4.438;2023-03-14T00:30:00;11.00;78.70
23560;DHT22;11958;50.836;4.438;2023-03-14T00:32:26;11.10;78.90
23560;DHT22;11958;50.836;4.438;2023-03-14T00:34:51;11.10;78.90
23560;DHT22;11958;50.836;4.438;2023-03-14T00:37:17;11.10;78.60
23560;DHT22;11958;50.836;4.438;2023-03-14T00:39:43;11.10;78.80
23560;DHT22;11958;50.836;4.438;2023-03-14T00:42:09;11.10;79.40
23560;DHT22;11958;50.836;4.438;2023-03-14T00:44:34;11.20;78.90
23560;DHT22;11958;50.836;4.438;2023-03-14T00:47:00;11.10;78.60
23560;DHT22;11958;50.836;4.438;2023-03-14T00:49:26;11.10;78.90
23560;DHT22;11958;50.836;4.438;2023-03-14T00:51:52;11.30;78.60
23560;DHT22;11958;50.836;4.438;2023-03-14T00:54:19;11.30;78.60
23560;DHT22;11958;50.836;4.438;2023-03-14T00:56:44;11.60;77.80
23560;DHT22;11958;50.836;4.438;2023-03-14T00:59:10;11.80;77.40
23560;DHT22;11958;50.836;4.438;2023-03-14T01:01:36;11.50;78.00
23560;DHT22;11958;50.836;4.438;2023-03-14T01:04:02;11.50;78.60
23560;DHT22;11958;50.836;4.438;2023-03-14T01:06:29;11.40;78.00
23560;DHT22;11958;50.836;4.438;2023-03-14T01:08:55;11.20;78.50
23560;DHT22;11958;50.836;4.438;2023-03-14T01:11:29;11.40;78.30
23560;DHT22;11958;50.836;4.438;2023-03-14T01:13:56;11.40;78.20
23560;DHT22;11958;50.836;4.438;2023-03-14T01:19:29;11.20;78.60
23560;DHT22;11958;50.836;4.438;2023-03-14T01:24:26;11.10;78.60
23560;DHT22;11958;50.836;4.438;2023-03-14T01:26:51;11.10;78.80
23560;DHT22;11958;50.836;4.438;2023-03-14T01:29:17;11.00;78.40
23560;DHT22;11958;50.836;4.438;2023-03-14T01:31:42;11.10;78.80
23560;DHT22;11958;50.836;4.438;2023-03-14T01:34:08;11.10;78.50
23560;DHT22;11958;50.836;4.438;2023-03-14T01:36:34;10.90;78.70
23560;DHT22;11958;50.836;4.438;2023-03-14T01:38:59;10.80;78.90
23560;DHT22;11958;50.836;4.438;2023-03-14T01:41:26;10.80;78.90
23560;DHT22;11958;50.836;4.438;2023-03-14T01:43:52;10.70;78.90
23560;DHT22;11958;50.836;4.438;2023-03-14T01:54:01;10.80;78.60
23560;DHT22;11958;50.836;4.438;2023-03-14T01:56:28;10.70;79.80
23560;DHT22;11958;50.836;4.438;2023-03-14T01:58:54;10.80;82.40
23560;DHT22;11958;50.836;4.438;2023-03-14T02:01:22;10.40;84.40
23560;DHT22;11958;50.836;4.438;2023-03-14T02:03:55;10.10;87.20
23560;DHT22;11958;50.836;4.438;2023-03-14T02:06:26;10.00;88.50
23560;DHT22;11958;50.836;4.438;2023-03-14T02:08:52;9.90;90.20
23560;DHT22;11958;50.836;4.438;2023-03-14T02:11:19;9.70;91.20
23560;DHT22;11958;50.836;4.438;2023-03-14T02:13:45;9.60;92.90
23560;DHT22;11958;50.836;4.438;2023-03-14T02:16:11;9.70;93.00
23560;DHT22;11958;50.836;4.438;2023-03-14T02:18:37;9.50;93.30
23560;DHT22;11958;50.836;4.438;2023-03-14T02:26:22;9.70;93.50
23560;DHT22;11958;50.836;4.438;2023-03-14T02:28:51;9.70;94.00
23560;DHT22;11958;50.836;4.438;2023-03-14T02:31:18;9.60;93.70
23560;DHT22;11958;50.836;4.438;2023-03-14T02:33:46;9.60;94.20
23560;DHT22;11958;50.836;4.438;2023-03-14T02:36:13;9.50;95.10
23560;DHT22;11958;50.836;4.438;2023-03-14T02:41:14;9.60;95.20
23560;DHT22;11958;50.836;4.438;2023-03-14T02:43:41;9.60;95.50
23560;DHT22;11958;50.836;4.438;2023-03-14T02:46:10;9.70;95.40
23560;DHT22;11958;50.836;4.438;2023-03-14T02:48:41;9.70;94.70
23560;DHT22;11958;50.836;4.438;2023-03-14T02:51:09;9.70;94.90
23560;DHT22;11958;50.836;4.438;2023-03-14T02:53:36;9.70;95.20
23560;DHT22;11958;50.836;4.438;2023-03-14T02:56:03;10.00;95.00
23560;DHT22;11958;50.836;4.438;2023-03-14T02:58:30;9.90;94.60
23560;DHT22;11958;50.836;4.438;2023-03-14T03:00:55;9.90;94.60
23560;DHT22;11958;50.836;4.438;2023-03-14T03:03:21;9.90;94.90
23560;DHT22;11958;50.836;4.438;2023-03-14T03:05:54;9.90;94.80
23560;DHT22;11958;50.836;4.438;2023-03-14T03:08:23;9.90;94.50
23560;DHT22;11958;50.836;4.438;2023-03-14T03:10:49;9.80;95.30
23560;DHT22;11958;50.836;4.438;2023-03-14T03:13:15;10.00;94.70
23560;DHT22;11958;50.836;4.438;2023-03-14T03:15:41;10.00;94.60
23560;DHT22;11958;50.836;4.438;2023-03-14T03:18:07;9.90;94.70
23560;DHT22;11958;50.836;4.438;2023-03-14T03:20:33;9.90;94.60
23560;DHT22;11958;50.836;4.438;2023-03-14T03:22:59;9.80;95.10
23560;DHT22;11958;50.836;4.438;2023-03-14T03:25:26;9.90;95.00
23560;DHT22;11958;50.836;4.438;2023-03-14T03:27:51;9.90;95.60
23560;DHT22;11958;50.836;4.438;2023-03-14T03:30:17;9.90;95.60
23560;DHT22;11958;50.836;4.438;2023-03-14T03:32:44;9.90;95.50
23560;DHT22;11958;50.836;4.438;2023-03-14T03:35:12;9.80;95.50
23560;DHT22;11958;50.836;4.438;2023-03-14T03:37:38;10.00;95.40
23560;DHT22;11958;50.836;4.438;2023-03-14T03:40:04;10.10;95.60
23560;DHT22;11958;50.836;4.438;2023-03-14T03:42:32;9.90;95.50
23560;DHT22;11958;50.836;4.438;2023-03-14T03:44:59;10.10;95.40
23560;DHT22;11958;50.836;4.438;2023-03-14T03:47:24;10.00;95.40
23560;DHT22;11958;50.836;4.438;2023-03-14T03:49:50;10.00;95.90
23560;DHT22;11958;50.836;4.438;2023-03-14T03:52:16;10.10;95.50
23560;DHT22;11958;50.836;4.438;2023-03-14T03:54:42;10.20;94.70
23560;DHT22;11958;50.836;4.438;2023-03-14T03:57:07;10.00;94.60
23560;DHT22;11958;50.836;4.438;2023-03-14T03:59:33;10.00;95.50
23560;DHT22;11958;50.836;4.438;2023-03-14T04:01:59;10.00;95.90
23560;DHT22;11958;50.836;4.438;2023-03-14T04:04:25;10.10;95.20
23560;DHT22;11958;50.836;4.438;2023-03-14T04:06:51;10.10;95.30
23560;DHT22;11958;50.836;4.438;2023-03-14T04:09:16;10.00;95.50
23560;DHT22;11958;50.836;4.438;2023-03-14T04:11:42;9.90;96.00
23560;DHT22;11958;50.836;4.438;2023-03-14T04:14:08;10.00;95.70
23560;DHT22;11958;50.836;4.438;2023-03-14T04:16:34;10.00;95.60
23560;DHT22;11958;50.836;4.438;2023-03-14T04:19:01;10.00;96.00
23560;DHT22;11958;50.836;4.438;2023-03-14T04:21:27;10.10;95.90
23560;DHT22;11958;50.836;4.438;2023-03-14T04:23:53;10.10;95.90
23560;DHT22;11958;50.836;4.438;2023-03-14T04:26:19;10.00;96.50
23560;DHT22;11958;50.836;4.438;2023-03-14T04:28:44;10.00;95.80
23560;DHT22;11958;50.836;4.438;2023-03-14T04:31:13;9.90;96.30
23560;DHT22;11958;50.836;4.438;2023-03-14T04:33:39;9.90;96.90
23560;DHT22;11958;50.836;4.438;2023-03-14T04:36:05;9.90;97.00
23560;DHT22;11958;50.836;4.438;2023-03-14T04:38:31;10.00;96.30
23560;DHT22;11958;50.836;4.438;2023-03-14T04:40:57;10.10;96.80
23560;DHT22;11958;50.836;4.438;2023-03-14T04:43:24;10.00;96.10
23560;DHT22;11958;50.836;4.438;2023-03-14T04:45:53;10.00;96.50
23560;DHT22;11958;50.836;4.438;2023-03-14T04:48:19;10.00;95.90
23560;DHT22;11958;50.836;4.438;2023-03-14T04:50:46;10.10;96.20
23560;DHT22;11958;50.836;4.438;2023-03-14T04:53:13;10.00;96.20
23560;DHT22;11958;50.836;4.438;2023-03-14T04:55:38;10.10;96.10
23560;DHT22;11958;50.836;4.438;2023-03-14T04:58:04;10.10;96.80
23560;DHT22;11958;50.836;4.438;2023-03-14T05:00:30;10.20;96.10
23560;DHT22;11958;50.836;4.438;2023-03-14T05:02:56;10.20;96.50
23560;DHT22;11958;50.836;4.438;2023-03-14T05:05:22;10.10;96.60
23560;DHT22;11958;50.836;4.438;2023-03-14T05:07:47;10.10;97.10
23560;DHT22;11958;50.836;4.438;2023-03-14T05:10:13;10.00;97.30
23560;DHT22;11958;50.836;4.438;2023-03-14T05:12:39;10.20;96.80
23560;DHT22;11958;50.836;4.438;2023-03-14T05:15:05;10.00;96.90
23560;DHT22;11958;50.836;4.438;2023-03-14T05:17:32;10.00;97.50
23560;DHT22;11958;50.836;4.438;2023-03-14T05:19:58;10.00;97.30
23560;DHT22;11958;50.836;4.438;2023-03-14T05:22:24;10.10;97.20
23560;DHT22;11958;50.836;4.438;2023-03-14T05:24:50;10.00;97.30
23560;DHT22;11958;50.836;4.438;2023-03-14T05:27:15;10.00;97.70
23560;DHT22;11958;50.836;4.438;2023-03-14T05:29:41;10.00;98.30
23560;DHT22;11958;50.836;4.438;2023-03-14T05:32:07;10.10;98.30
23560;DHT22;11958;50.836;4.438;2023-03-14T05:34:32;10.00;98.80
23560;DHT22;11958;50.836;4.438;2023-03-14T05:36:58;10.10;98.30
23560;DHT22;11958;50.836;4.438;2023-03-14T05:39:24;10.10;98.30
23560;DHT22;11958;50.836;4.438;2023-03-14T05:41:49;10.00;98.40
23560;DHT22;11958;50.836;4.438;2023-03-14T05:44:16;10.10;98.80
23560;DHT22;11958;50.836;4.438;2023-03-14T05:46:42;10.00;99.00
23560;DHT22;11958;50.836;4.438;2023-03-14T05:49:08;9.90;98.90
23560;DHT22;11958;50.836;4.438;2023-03-14T05:51:33;10.00;98.50
23560;DHT22;11958;50.836;4.438;2023-03-14T05:53:59;10.00;98.60
23560;DHT22;11958;50.836;4.438;2023-03-14T05:56:25;9.90;98.50
23560;DHT22;11958;50.836;4.438;2023-03-14T05:58:50;9.90;98.50
23560;DHT22;11958;50.836;4.438;2023-03-14T06:01:16;10.00;98.70
23560;DHT22;11958;50.836;4.438;2023-03-14T06:03:42;10.00;98.50
23560;DHT22;11958;50.836;4.438;2023-03-14T06:06:07;9.90;98.10
23560;DHT22;11958;50.836;4.438;2023-03-14T06:08:33;10.00;98.40
23560;DHT22;11958;50.836;4.438;2023-03-14T06:11:22;10.00;97.90
23560;DHT22;11958;50.836;4.438;2023-03-14T06:13:48;10.00;98.90
23560;DHT22;11958;50.836;4.438;2023-03-14T06:16:14;10.10;98.50
23560;DHT22;11958;50.836;4.438;2023-03-14T06:18:39;10.10;97.90
23560;DHT22;11958;50.836;4.438;2023-03-14T06:21:05;10.10;98.60
23560;DHT22;11958;50.836;4.438;2023-03-14T06:23:31;9.90;99.00
23560;DHT22;11958;50.836;4.438;2023-03-14T06:25:57;10.00;99.30
23560;DHT22;11958;50.836;4.438;2023-03-14T06:28:23;10.00;99.80
23560;DHT22;11958;50.836;4.438;2023-03-14T06:30:56;10.00;99.70
23560;DHT22;11958;50.836;4.438;2023-03-14T06:33:23;10.10;99.60
23560;DHT22;11958;50.836;4.438;2023-03-14T06:35:49;10.10;99.00
23560;DHT22;11958;50.836;4.438;2023-03-14T06:38:15;10.00;99.50
23560;DHT22;11958;50.836;4.438;2023-03-14T06:41:12;10.00;99.90
23560;DHT22;11958;50.836;4.438;2023-03-14T06:43:37;9.90;99.90
23560;DHT22;11958;50.836;4.438;2023-03-14T06:46:03;9.80;99.90
23560;DHT22;11958;50.836;4.438;2023-03-14T06:48:29;9.80;99.90
23560;DHT22;11958;50.836;4.438;2023-03-14T06:50:55;9.90;99.90
23560;DHT22;11958;50.836;4.438;2023-03-14T06:53:20;9.80;99.90
23560;DHT22;11958;50.836;4.438;2023-03-14T06:56:01;9.70;99.90
23560;DHT22;11958;50.836;4.438;2023-03-14T07:13:13;8.00;98.70
23560;DHT22;11958;50.836;4.438;2023-03-14T07:15:59;8.30;99.90
23560;DHT22;11958;50.836;4.438;2023-03-14T07:18:25;8.20;99.90
23560;DHT22;11958;50.836;4.438;2023-03-14T07:20:51;8.00;99.00
23560;DHT22;11958;50.836;4.438;2023-03-14T07:23:21;7.80;99.70
23560;DHT22;11958;50.836;4.438;2023-03-14T07:25:57;7.70;98.90
23560;DHT22;11958;50.836;4.438;2023-03-14T07:28:22;7.70;99.40
23560;DHT22;11958;50.836;4.438;2023-03-14T07:30:48;7.50;99.00
23560;DHT22;11958;50.836;4.438;2023-03-14T07:33:14;7.50;99.50
23560;DHT22;11958;50.836;4.438;2023-03-14T07:35:42;7.40;98.50
23560;DHT22;11958;50.836;4.438;2023-03-14T07:38:08;7.40;98.90
23560;DHT22;11958;50.836;4.438;2023-03-14T07:40:34;7.50;99.30
23560;DHT22;11958;50.836;4.438;2023-03-14T07:56:19;7.50;99.90
23560;DHT22;11958;50.836;4.438;2023-03-14T07:59:07;7.30;99.70
23560;DHT22;11958;50.836;4.438;2023-03-14T08:01:33;7.40;99.90
23560;DHT22;11958;50.836;4.438;2023-03-14T08:03:59;7.40;99.90
23560;DHT22;11958;50.836;4.438;2023-03-14T08:06:25;7.40;99.90
23560;DHT22;11958;50.836;4.438;2023-03-14T08:08:51;7.60;99.90
23560;DHT22;11958;50.836;4.438;2023-03-14T08:11:16;7.50;99.90
23560;DHT22;11958;50.836;4.438;2023-03-14T08:13:42;7.30;99.90
23560;DHT22;11958;50.836;4.438;2023-03-14T08:16:18;7.50;99.90
23560;DHT22;11958;50.836;4.438;2023-03-14T08:18:44;7.50;99.90
23560;DHT22;11958;50.836;4.438;2023-03-14T08:21:10;7.50;99.20
23560;DHT22;11958;50.836;4.438;2023-03-14T08:23:36;7.60;99.90
23560;DHT22;11958;50.836;4.438;2023-03-14T08:26:02;7.70;99.90
23560;DHT22;11958;50.836;4.438;2023-03-14T08:28:27;7.60;97.70
23560;DHT22;11958;50.836;4.438;2023-03-14T08:30:58;7.50;97.50
23560;DHT22;11958;50.836;4.438;2023-03-14T08:33:25;7.50;98.20
23560;DHT22;11958;50.836;4.438;2023-03-14T08:35:54;7.30;98.60
23560;DHT22;11958;50.836;4.438;2023-03-14T08:38:21;7.30;97.40
23560;DHT22;11958;50.836;4.438;2023-03-14T08:40:46;7.30;98.20
23560;DHT22;11958;50.836;4.438;2023-03-14T08:43:12;7.40;98.80
23560;DHT22;11958;50.836;4.438;2023-03-14T08:45:38;7.20;98.00
23560;DHT22;11958;50.836;4.438;2023-03-14T08:48:04;7.10;97.20
23560;DHT22;11958;50.836;4.438;2023-03-14T08:50:30;7.10;98.10
23560;DHT22;11958;50.836;4.438;2023-03-14T08:52:55;6.80;97.90
23560;DHT22;11958;50.836;4.438;2023-03-14T08:55:25;6.80;98.40
23560;DHT22;11958;50.836;4.438;2023-03-14T08:57:52;6.90;97.90
23560;DHT22;11958;50.836;4.438;2023-03-14T09:00:19;7.00;98.80
23560;DHT22;11958;50.836;4.438;2023-03-14T09:02:44;6.90;98.00
23560;DHT22;11958;50.836;4.438;2023-03-14T09:05:11;6.80;98.50
23560;DHT22;11958;50.836;4.438;2023-03-14T09:07:38;6.50;98.90
23560;DHT22;11958;50.836;4.438;2023-03-14T09:10:05;6.70;98.80
23560;DHT22;11958;50.836;4.438;2023-03-14T09:12:31;6.60;98.40
23560;DHT22;11958;50.836;4.438;2023-03-14T09:14:57;6.60;97.70
23560;DHT22;11958;50.836;4.438;2023-03-14T09:17:22;6.80;97.60
23560;DHT22;11958;50.836;4.438;2023-03-14T09:19:48;6.70;97.60
23560;DHT22;11958;50.836;4.438;2023-03-14T09:22:14;6.90;98.40
23560;DHT22;11958;50.836;4.438;2023-03-14T09:24:41;6.60;98.30
23560;DHT22;11958;50.836;4.438;2023-03-14T09:27:07;6.70;97.30
23560;DHT22;11958;50.836;4.438;2023-03-14T09:29:33;6.70;97.80
23560;DHT22;11958;50.836;4.438;2023-03-14T09:31:59;6.80;98.80
23560;DHT22;11958;50.836;4.438;2023-03-14T09:34:27;6.90;98.00
23560;DHT22;11958;50.836;4.438;2023-03-14T09:36:53;6.80;97.70
23560;DHT22;11958;50.836;4.438;2023-03-14T09:39:24;6.70;97.90
23560;DHT22;11958;50.836;4.438;2023-03-14T09:41:51;6.60;98.00
23560;DHT22;11958;50.836;4.438;2023-03-14T09:44:33;6.70;97.30
23560;DHT22;11958;50.836;4.438;2023-03-14T09:47:06;6.60;97.30
23560;DHT22;11958;50.836;4.438;2023-03-14T09:49:39;6.60;97.10
23560;DHT22;11958;50.836;4.438;2023-03-14T09:52:26;6.60;96.30
23560;DHT22;11958;50.836;4.438;2023-03-14T09:54:57;6.50;95.60
23560;DHT22;11958;50.836;4.438;2023-03-14T09:57:25;6.70;96.50
23560;DHT22;11958;50.836;4.438;2023-03-14T09:59:54;6.60;96.30
23560;DHT22;11958;50.836;4.438;2023-03-14T10:02:23;6.70;95.10
23560;DHT22;11958;50.836;4.438;2023-03-14T10:04:51;6.80;95.70
23560;DHT22;11958;50.836;4.438;2023-03-14T10:07:30;6.80;93.40
23560;DHT22;11958;50.836;4.438;2023-03-14T10:09:56;6.70;93.20
23560;DHT22;11958;50.836;4.438;2023-03-14T10:12:34;6.70;91.70
23560;DHT22;11958;50.836;4.438;2023-03-14T10:15:32;6.90;91.30
23560;DHT22;11958;50.836;4.438;2023-03-14T10:18:00;7.20;90.80
23560;DHT22;11958;50.836;4.438;2023-03-14T10:20:40;7.40;89.90
23560;DHT22;11958;50.836;4.438;2023-03-14T10:26:18;7.60;90.40
23560;DHT22;11958;50.836;4.438;2023-03-14T10:46:17;6.80;94.00
23560;DHT22;11958;50.836;4.438;2023-03-14T10:48:44;6.70;93.30
23560;DHT22;11958;50.836;4.438;2023-03-14T10:54:13;6.60;94.30
23560;DHT22;11958;50.836;4.438;2023-03-14T10:56:39;6.50;94.10
23560;DHT22;11958;50.836;4.438;2023-03-14T10:59:13;6.40;94.80
23560;DHT22;11958;50.836;4.438;2023-03-14T11:04:23;6.00;94.70
23560;DHT22;11958;50.836;4.438;2023-03-14T11:09:56;6.40;96.40
23560;DHT22;11958;50.836;4.438;2023-03-14T11:14:55;6.50;96.40
23560;DHT22;11958;50.836;4.438;2023-03-14T11:17:34;6.10;95.50
23560;DHT22;11958;50.836;4.438;2023-03-14T11:22:50;6.20;96.00
23560;DHT22;11958;50.836;4.438;2023-03-14T11:28:44;6.20;96.90
23560;DHT22;11958;50.836;4.438;2023-03-14T11:31:20;6.00;95.70
23560;DHT22;11958;50.836;4.438;2023-03-14T11:34:25;5.80;96.30
23560;DHT22;11958;50.836;4.438;2023-03-14T11:37:07;5.70;96.60
23560;DHT22;11958;50.836;4.438;2023-03-14T11:39:44;5.60;97.00
23560;DHT22;11958;50.836;4.438;2023-03-14T11:42:16;5.70;97.80
23560;DHT22;11958;50.836;4.438;2023-03-14T11:44:46;5.90;98.20
23560;DHT22;11958;50.836;4.438;2023-03-14T11:47:20;5.60;96.60
23560;DHT22;11958;50.836;4.438;2023-03-14T11:49:53;5.60;97.30
23560;DHT22;11958;50.836;4.438;2023-03-14T11:52:34;5.70;97.60
23560;DHT22;11958;50.836;4.438;2023-03-14T11:57:37;5.60;97.50
23560;DHT22;11958;50.836;4.438;2023-03-14T12:00:15;5.70;97.10
23560;DHT22;11958;50.836;4.438;2023-03-14T12:08:53;5.70;97.30
23560;DHT22;11958;50.836;4.438;2023-03-14T12:14:03;5.80;97.60
23560;DHT22;11958;50.836;4.438;2023-03-14T12:16:46;6.00;98.20
23560;DHT22;11958;50.836;4.438;2023-03-14T12:19:37;5.70;96.20
23560;DHT22;11958;50.836;4.438;2023-03-14T12:24:47;5.70;96.60
23560;DHT22;11958;50.836;4.438;2023-03-14T12:27:39;5.90;97.70
23560;DHT22;11958;50.836;4.438;2023-03-14T12:35:40;6.10;96.90
23560;DHT22;11958;50.836;4.438;2023-03-14T12:38:29;5.90;97.50
23560;DHT22;11958;50.836;4.438;2023-03-14T12:43:33;6.00;97.10
23560;DHT22;11958;50.836;4.438;2023-03-14T12:48:45;5.90;97.80
23560;DHT22;11958;50.836;4.438;2023-03-14T12:51:16;5.80;97.80
23560;DHT22;11958;50.836;4.438;2023-03-14T12:59:28;5.70;96.80
23560;DHT22;11958;50.836;4.438;2023-03-14T13:01:59;5.70;97.70
23560;DHT22;11958;50.836;4.438;2023-03-14T13:09:59;6.10;97.50
23560;DHT22;11958;50.836;4.438;2023-03-14T13:12:29;5.80;96.60
23560;DHT22;11958;50.836;4.438;2023-03-14T13:14:58;5.80;96.80
23560;DHT22;11958;50.836;4.438;2023-03-14T13:17:29;6.00;97.10
23560;DHT22;11958;50.836;4.438;2023-03-14T13:19:59;6.00;96.50
23560;DHT22;11958;50.836;4.438;2023-03-14T13:22:28;5.80;96.20
23560;DHT22;11958;50.836;4.438;2023-03-14T13:25:07;5.60;96.60
23560;DHT22;11958;50.836;4.438;2023-03-14T13:27:35;5.90;97.10
23560;DHT22;11958;50.836;4.438;2023-03-14T13:30:20;6.00;97.30
23560;DHT22;11958;50.836;4.438;2023-03-14T13:32:53;6.00;97.30
23560;DHT22;11958;50.836;4.438;2023-03-14T13:35:22;5.80;97.80
23560;DHT22;11958;50.836;4.438;2023-03-14T13:37:54;6.00;98.00
23560;DHT22;11958;50.836;4.438;2023-03-14T13:40:33;6.10;97.70
23560;DHT22;11958;50.836;4.438;2023-03-14T13:45:48;6.30;94.40
23560;DHT22;11958;50.836;4.438;2023-03-14T13:48:15;6.30;94.60
23560;DHT22;11958;50.836;4.438;2023-03-14T13:53:22;6.40;96.10
23560;DHT22;11958;50.836;4.438;2023-03-14T13:55:49;6.70;95.50
23560;DHT22;11958;50.836;4.438;2023-03-14T13:58:45;6.80;95.30
23560;DHT22;11958;50.836;4.438;2023-03-14T14:01:43;7.00;94.30
23560;DHT22;11958;50.836;4.438;2023-03-14T14:04:14;7.10;94.30
23560;DHT22;11958;50.836;4.438;2023-03-14T14:06:47;7.00;93.50
23560;DHT22;11958;50.836;4.438;2023-03-14T14:09:16;7.10;93.10
23560;DHT22;11958;50.836;4.438;2023-03-14T14:11:55;6.80;92.50
23560;DHT22;11958;50.836;4.438;2023-03-14T14:14:25;6.80;91.20
23560;DHT22;11958;50.836;4.438;2023-03-14T14:16:52;6.80;92.10
23560;DHT22;11958;50.836;4.438;2023-03-14T14:19:19;6.90;91.30
23560;DHT22;11958;50.836;4.438;2023-03-14T14:21:47;7.10;91.60
23560;DHT22;11958;50.836;4.438;2023-03-14T14:24:14;7.10;90.50
23560;DHT22;11958;50.836;4.438;2023-03-14T14:26:50;7.40;90.50
23560;DHT22;11958;50.836;4.438;2023-03-14T14:29:27;7.40;89.60
23560;DHT22;11958;50.836;4.438;2023-03-14T14:34:56;7.40;87.10
23560;DHT22;11958;50.836;4.438;2023-03-14T14:37:25;7.20;84.00
23560;DHT22;11958;50.836;4.438;2023-03-14T14:39:53;7.00;78.80
23560;DHT22;11958;50.836;4.438;2023-03-14T14:42:21;7.00;78.10
23560;DHT22;11958;50.836;4.438;2023-03-14T14:44:50;6.60;73.80
23560;DHT22;11958;50.836;4.438;2023-03-14T14:47:27;6.60;73.90
23560;DHT22;11958;50.836;4.438;2023-03-14T14:49:56;6.60;73.20
23560;DHT22;11958;50.836;4.438;2023-03-14T14:52:43;6.40;69.10
23560;DHT22;11958;50.836;4.438;2023-03-14T14:55:17;5.70;68.90
23560;DHT22;11958;50.836;4.438;2023-03-14T14:57:49;5.80;68.50
23560;DHT22;11958;50.836;4.438;2023-03-14T15:00:24;5.60;64.90
23560;DHT22;11958;50.836;4.438;2023-03-14T15:02:55;5.40;64.70
23560;DHT22;11958;50.836;4.438;2023-03-14T15:05:26;5.30;65.40
23560;DHT22;11958;50.836;4.438;2023-03-14T15:07:52;5.30;64.90
23560;DHT22;11958;50.836;4.438;2023-03-14T15:10:23;5.20;62.90
23560;DHT22;11958;50.836;4.438;2023-03-14T15:12:49;5.30;63.20
23560;DHT22;11958;50.836;4.438;2023-03-14T15:15:16;5.40;64.10
23560;DHT22;11958;50.836;4.438;2023-03-14T15:17:42;5.40;64.70
23560;DHT22;11958;50.836;4.438;2023-03-14T15:20:13;5.80;69.10
23560;DHT22;11958;50.836;4.438;2023-03-14T15:22:40;5.70;69.30
23560;DHT22;11958;50.836;4.438;2023-03-14T15:25:06;5.70;63.10
23560;DHT22;11958;50.836;4.438;2023-03-14T15:28:17;6.00;62.80
23560;DHT22;11958;50.836;4.438;2023-03-14T15:30:51;6.30;68.90
23560;DHT22;11958;50.836;4.438;2023-03-14T15:33:17;6.60;64.30
23560;DHT22;11958;50.836;4.438;2023-03-14T15:35:44;6.90;60.70
23560;DHT22;11958;50.836;4.438;2023-03-14T15:38:12;7.00;61.40
23560;DHT22;11958;50.836;4.438;2023-03-14T15:40:39;7.20;65.30
23560;DHT22;11958;50.836;4.438;2023-03-14T15:43:04;7.30;65.70
23560;DHT22;11958;50.836;4.438;2023-03-14T15:45:30;7.20;63.90
23560;DHT22;11958;50.836;4.438;2023-03-14T15:47:56;7.30;64.70
23560;DHT22;11958;50.836;4.438;2023-03-14T15:50:22;7.00;65.20
23560;DHT22;11958;50.836;4.438;2023-03-14T15:52:48;7.00;67.10
23560;DHT22;11958;50.836;4.438;2023-03-14T15:55:14;6.80;69.50
23560;DHT22;11958;50.836;4.438;2023-03-14T15:57:41;6.70;62.40
23560;DHT22;11958;50.836;4.438;2023-03-14T16:00:17;6.80;59.40
23560;DHT22;11958;50.836;4.438;2023-03-14T16:02:44;6.70;59.60
23560;DHT22;11958;50.836;4.438;2023-03-14T16:05:11;6.60;58.30
23560;DHT22;11958;50.836;4.438;2023-03-14T16:07:37;6.60;60.50
23560;DHT22;11958;50.836;4.438;2023-03-14T16:10:04;6.60;60.00
23560;DHT22;11958;50.836;4.438;2023-03-14T16:12:31;6.70;59.10
23560;DHT22;11958;50.836;4.438;2023-03-14T16:14:57;6.60;56.90
23560;DHT22;11958;50.836;4.438;2023-03-14T16:17:22;6.40;55.70
23560;DHT22;11958;50.836;4.438;2023-03-14T16:19:48;6.30;55.90
23560;DHT22;11958;50.836;4.438;2023-03-14T16:22:14;6.30;55.80
23560;DHT22;11958;50.836;4.438;2023-03-14T16:24:39;6.40;56.30
23560;DHT22;11958;50.836;4.438;2023-03-14T16:27:05;6.20;57.40
23560;DHT22;11958;50.836;4.438;2023-03-14T16:29:30;6.10;58.50
23560;DHT22;11958;50.836;4.438;2023-03-14T16:31:56;6.40;59.10
23560;DHT22;11958;50.836;4.438;2023-03-14T16:34:22;6.40;59.70
23560;DHT22;11958;50.836;4.438;2023-03-14T16:36:47;6.40;58.00
23560;DHT22;11958;50.836;4.438;2023-03-14T16:39:16;6.50;59.70
23560;DHT22;11958;50.836;4.438;2023-03-14T16:41:42;6.40;60.50
23560;DHT22;11958;50.836;4.438;2023-03-14T16:44:08;6.50;60.20
23560;DHT22;11958;50.836;4.438;2023-03-14T16:46:33;6.40;61.00
23560;DHT22;11958;50.836;4.438;2023-03-14T16:49:00;6.50;59.00
23560;DHT22;11958;50.836;4.438;2023-03-14T16:51:26;6.60;59.20
23560;DHT22;11958;50.836;4.438;2023-03-14T16:53:52;6.50;60.10
23560;DHT22;11958;50.836;4.438;2023-03-14T16:56:18;6.40;59.10
23560;DHT22;11958;50.836;4.438;2023-03-14T16:58:45;6.40;58.50
23560;DHT22;11958;50.836;4.438;2023-03-14T17:01:13;6.50;60.00
23560;DHT22;11958;50.836;4.438;2023-03-14T17:03:41;6.40;59.30
23560;DHT22;11958;50.836;4.438;2023-03-14T17:06:10;6.50;58.20
23560;DHT22;11958;50.836;4.438;2023-03-14T17:08:35;6.40;59.10
23560;DHT22;11958;50.836;4.438;2023-03-14T20:09:06;4.40;84.30
23560;DHT22;11958;50.836;4.438;2023-03-14T20:11:35;4.40;85.10
23560;DHT22;11958;50.836;4.438;2023-03-14T20:14:08;4.40;84.90
23560;DHT22;11958;50.836;4.438;2023-03-14T20:16:35;4.40;85.40
23560;DHT22;11958;50.836;4.438;2023-03-14T20:19:11;4.40;85.10
23560;DHT22;11958;50.836;4.438;2023-03-14T20:21:37;4.40;85.20
23560;DHT22;11958;50.836;4.438;2023-03-14T20:24:03;4.40;85.30
23560;DHT22;11958;50.836;4.438;2023-03-14T20:26:30;4.50;85.80
23560;DHT22;11958;50.836;4.438;2023-03-14T20:28:59;4.60;85.70
23560;DHT22;11958;50.836;4.438;2023-03-14T20:31:25;4.60;85.90
23560;DHT22;11958;50.836;4.438;2023-03-14T20:33:51;4.50;85.90
23560;DHT22;11958;50.836;4.438;2023-03-14T20:36:16;4.40;86.10
23560;DHT22;11958;50.836;4.438;2023-03-14T20:38:42;4.50;86.00
23560;DHT22;11958;50.836;4.438;2023-03-14T20:41:08;4.60;86.10
23560;DHT22;11958;50.836;4.438;2023-03-14T20:43:35;4.70;85.90
23560;DHT22;11958;50.836;4.438;2023-03-14T20:46:02;4.60;86.10
23560;DHT22;11958;50.836;4.438;2023-03-14T20:48:29;4.60;85.50
23560;DHT22;11958;50.836;4.438;2023-03-14T20:50:55;4.40;85.30
23560;DHT22;11958;50.836;4.438;2023-03-14T20:53:28;4.40;84.90
23560;DHT22;11958;50.836;4.438;2023-03-14T20:56:27;4.50;85.30
23560;DHT22;11958;50.836;4.438;2023-03-14T22:48:19;3.90;85.50
23560;DHT22;11958;50.836;4.438;2023-03-14T22:50:44;4.00;85.30